Time;durP1;ratioP1;P1;durP2;ratioP2;P2;SDS_P1;SDS_P2;PMS_P1;PMS_P2;Temp;Humidity;BMP_temperature;BMP_pressure;BME280_temperature;BME280_humidity;BME280_pressure;Samples;Min_cycle;Max_cycle;Signal;HPM_P1;HPM_P2
2023/01/20 00:01:28;;;;;;;13.80;8.23;;;-4.10;99.90;;;;;;8262183;28;20215;-64
2023/01/20 00:05:29;;;;;;;14.57;7.63;;;-4.10;99.90;;;;;;8265367;28;20188;-63
2023/01/20 00:09:30;;;;;;;12.10;6.83;;;-4.10;99.90;;;;;;8263682;28;20187;-64
2023/01/20 00:13:31;;;;;;;12.37;7.00;;;-4.10;99.90;;;;;;8267456;28;20203;-65
2023/01/20 00:17:32;;;;;;;13.30;6.47;;;-4.10;1.00;;;;;;8270123;28;20187;-64
2023/01/20 00:21:33;;;;;;;12.20;7.37;;;-4.00;99.90;;;;;;8269960;28;20192;-64
2023/01/20 00:25:35;;;;;;;10.07;6.30;;;-4.00;99.90;;;;;;8268276;28;20254;-64
2023/01/20 00:29:36;;;;;;;12.60;7.50;;;-4.00;99.90;;;;;;8270046;28;20184;-64
2023/01/20 00:33:37;;;;;;;11.57;7.20;;;-4.00;99.90;;;;;;8268530;28;20241;-64
2023/01/20 00:37:38;;;;;;;13.57;8.20;;;-4.00;99.90;;;;;;8269915;28;20195;-64
2023/01/20 00:41:39;;;;;;;13.63;7.47;;;-3.90;1.00;;;;;;8268696;28;20223;-65
2023/01/20 00:45:40;;;;;;;24.27;12.47;;;-3.90;1.00;;;;;;8266432;28;20183;-64
2023/01/20 00:49:41;;;;;;;41.03;19.37;;;-3.90;1.00;;;;;;8269837;28;20450;-64
2023/01/20 00:53:41;;;;;;;40.33;20.67;;;-3.90;1.00;;;;;;8267902;28;20261;-65
2023/01/20 00:57:42;;;;;;;51.10;22.40;;;-3.90;1.00;;;;;;8274620;28;20206;-65
2023/01/20 01:01:44;;;;;;;42.73;18.57;;;-3.90;1.00;;;;;;8265078;28;20191;-64
2023/01/20 01:05:45;;;;;;;39.87;17.93;;;-3.90;64.10;;;;;;8267409;28;20176;-64
2023/01/20 01:09:46;;;;;;;43.70;19.23;;;-3.90;99.90;;;;;;8271541;28;20225;-65
2023/01/20 01:13:47;;;;;;;39.20;18.03;;;-3.90;1.00;;;;;;8274479;28;20211;-64
2023/01/20 01:17:48;;;;;;;38.40;18.37;;;-3.90;1.00;;;;;;8270050;28;20210;-64
2023/01/20 01:21:49;;;;;;;36.67;16.37;;;-3.90;99.90;;;;;;8272252;28;20195;-64
2023/01/20 01:25:50;;;;;;;32.57;16.60;;;-3.80;99.90;;;;;;8266542;28;20202;-64
2023/01/20 01:29:50;;;;;;;34.07;15.50;;;-3.80;1.00;;;;;;8268851;28;20262;-64
2023/01/20 01:33:51;;;;;;;39.47;17.47;;;-3.80;1.00;;;;;;8270517;28;20219;-64
2023/01/20 01:37:52;;;;;;;56.03;23.97;;;-3.80;99.90;;;;;;8265694;28;20199;-65
2023/01/20 01:41:53;;;;;;;45.57;19.70;;;-3.70;90.30;;;;;;8269927;28;20318;-64
2023/01/20 01:45:57;;;;;;;47.93;20.60;;;-3.50;1.00;;;;;;8264850;28;20197;-64
2023/01/20 01:49:58;;;;;;;43.53;18.60;;;-3.40;99.90;;;;;;8266031;28;20187;-65
2023/01/20 01:54:05;;;;;;;49.77;21.37;;;-3.40;1.00;;;;;;8264129;28;20203;-65
2023/01/20 01:58:10;;;;;;;52.23;22.80;;;-3.20;99.90;;;;;;8269011;28;20226;-64
2023/01/20 02:02:11;;;;;;;41.97;21.67;;;-3.10;74.00;;;;;;8268281;28;20251;-64
2023/01/20 02:06:13;;;;;;;42.90;22.20;;;-2.90;99.90;;;;;;8268823;28;20182;-64
2023/01/20 02:10:15;;;;;;;40.93;22.50;;;-2.80;99.90;;;;;;8270340;28;20196;-65
2023/01/20 02:14:20;;;;;;;49.47;23.73;;;-2.70;1.00;;;;;;8263848;28;20180;-65
2023/01/20 02:18:24;;;;;;;38.83;19.63;;;-2.60;1.00;;;;;;8264530;28;20200;-64
2023/01/20 02:22:30;;;;;;;38.27;19.43;;;-2.60;99.90;;;;;;8270002;28;20278;-65
2023/01/20 02:26:45;;;;;;;43.10;21.90;;;-2.50;99.90;;;;;;8271909;28;20204;-65
2023/01/20 02:31:20;;;;;;;55.13;24.27;;;-2.40;99.90;;;;;;8271827;28;20210;-65
2023/01/20 02:35:24;;;;;;;38.73;19.37;;;-2.40;1.00;;;;;;8263269;28;20212;-64
2023/01/20 02:39:51;;;;;;;42.87;20.63;;;-2.40;99.90;;;;;;8263036;28;20199;-64
2023/01/20 02:44:15;;;;;;;65.87;27.27;;;-2.40;99.90;;;;;;8263512;28;20199;-64
2023/01/20 02:48:35;;;;;;;94.43;38.17;;;-2.30;99.90;;;;;;8264203;28;20226;-64
2023/01/20 02:52:41;;;;;;;62.97;28.23;;;-2.30;99.90;;;;;;8265869;28;20220;-64
2023/01/20 02:56:42;;;;;;;64.17;30.00;;;-2.20;99.90;;;;;;8263489;28;20195;-64
2023/01/20 03:00:49;;;;;;;55.10;26.63;;;-2.20;99.90;;;;;;8264676;28;20205;-64
2023/01/20 03:04:56;;;;;;;44.60;23.57;;;-2.10;99.90;;;;;;8268350;28;20183;-66
2023/01/20 03:09:01;;;;;;;57.97;26.70;;;-2.00;99.90;;;;;;8265161;28;20235;-66
2023/01/20 03:13:17;;;;;;;52.80;27.40;;;-2.00;99.90;;;;;;8263405;28;20208;-66
2023/01/20 03:17:19;;;;;;;71.67;31.43;;;-1.90;1.00;;;;;;8270332;28;20194;-66
2023/01/20 03:21:20;;;;;;;67.17;31.30;;;-1.90;99.90;;;;;;8265123;28;20236;-66
2023/01/20 03:25:21;;;;;;;70.67;28.50;;;-1.80;99.90;;;;;;8269843;28;20200;-66
2023/01/20 03:29:22;;;;;;;52.10;23.60;;;-1.80;99.90;;;;;;8265611;28;20325;-66
2023/01/20 03:33:24;;;;;;;51.10;24.47;;;-1.70;99.90;;;;;;8264463;28;20339;-66
2023/01/20 03:37:25;;;;;;;46.80;23.30;;;-1.70;99.90;;;;;;8263464;28;20217;-66
2023/01/20 03:41:35;;;;;;;42.37;22.73;;;-1.60;99.90;;;;;;8268233;28;20223;-66
2023/01/20 03:45:52;;;;;;;68.87;29.87;;;-1.60;99.90;;;;;;8270304;28;20201;-67
2023/01/20 03:49:58;;;;;;;61.27;29.30;;;-1.50;99.90;;;;;;8262972;28;20279;-66
2023/01/20 03:54:05;;;;;;;54.10;30.57;;;-1.50;99.90;;;;;;8264523;28;20208;-66
2023/01/20 03:58:14;;;;;;;47.60;26.07;;;-1.60;99.90;;;;;;8261795;28;20203;-69
2023/01/20 04:02:15;;;;;;;42.40;23.70;;;-1.60;1.00;;;;;;8265465;28;20193;-66
2023/01/20 04:06:19;;;;;;;32.97;20.87;;;-1.60;1.00;;;;;;8262708;28;20210;-66
2023/01/20 04:10:21;;;;;;;34.97;18.03;;;-1.60;1.00;;;;;;8270058;28;20540;-66
2023/01/20 04:14:22;;;;;;;26.23;13.40;;;-1.60;11.90;;;;;;8262690;28;20189;-66
2023/01/20 04:18:23;;;;;;;26.93;13.60;;;-1.50;1.00;;;;;;8262583;28;20178;-67
2023/01/20 04:22:27;;;;;;;25.37;12.57;;;-1.50;1.00;;;;;;8263734;28;20186;-66
2023/01/20 04:26:27;;;;;;;22.07;12.23;;;-1.40;1.00;;;;;;8262354;28;20390;-66
2023/01/20 04:30:28;;;;;;;20.13;11.97;;;-1.30;1.00;;;;;;8257461;28;20333;-66
2023/01/20 04:34:29;;;;;;;21.57;12.70;;;-1.30;99.90;;;;;;8261620;28;20271;-66
2023/01/20 04:38:30;;;;;;;25.80;13.93;;;-1.20;99.90;;;;;;8266953;28;20265;-66
2023/01/20 04:42:31;;;;;;;28.60;17.47;;;-1.20;99.90;;;;;;8264974;28;20188;-66
2023/01/20 04:46:32;;;;;;;32.57;16.87;;;-1.10;99.90;;;;;;8266557;28;20298;-66
2023/01/20 04:50:36;;;;;;;16.90;10.17;;;-1.10;99.90;;;;;;8264503;28;20231;-67
2023/01/20 04:54:37;;;;;;;12.93;7.97;;;-1.00;99.90;;;;;;8262521;28;20196;-66
2023/01/20 04:58:38;;;;;;;10.90;7.07;;;-0.80;99.90;;;;;;8265525;28;20190;-67
2023/01/20 05:02:39;;;;;;;11.03;7.47;;;-0.70;15.80;;;;;;8266803;28;20205;-66
2023/01/20 05:06:42;;;;;;;13.73;8.20;;;-0.60;99.90;;;;;;8265929;28;20637;-66
2023/01/20 05:10:42;;;;;;;12.17;7.53;;;-0.50;99.90;;;;;;8273375;28;20215;-66
2023/01/20 05:14:43;;;;;;;11.73;7.77;;;-0.50;99.90;;;;;;8274450;28;20191;-66
2023/01/20 05:18:44;;;;;;;11.67;6.77;;;-0.40;99.90;;;;;;8271896;28;20240;-67
2023/01/20 05:22:46;;;;;;;11.20;7.03;;;-0.40;90.20;;;;;;8274724;28;20421;-66
2023/01/20 05:26:47;;;;;;;10.40;7.07;;;-0.40;55.00;;;;;;8266312;28;20196;-66
2023/01/20 05:30:48;;;;;;;11.93;7.20;;;-0.40;25.50;;;;;;8273672;28;20207;-66
2023/01/20 05:34:49;;;;;;;14.33;7.13;;;-0.30;9.30;;;;;;8272481;28;20239;-67
2023/01/20 05:38:50;;;;;;;8.03;6.50;;;-0.30;1.00;;;;;;8271803;28;20203;-66
2023/01/20 05:42:51;;;;;;;9.40;6.03;;;-0.30;1.00;;;;;;8273440;28;20202;-66
2023/01/20 05:46:52;;;;;;;11.17;7.57;;;-0.30;1.00;;;;;;8261275;28;20424;-66
2023/01/20 05:50:53;;;;;;;12.97;7.17;;;-0.40;1.00;;;;;;8263345;28;20218;-66
2023/01/20 05:54:53;;;;;;;9.73;6.73;;;-0.40;1.00;;;;;;8271611;28;20277;-67
2023/01/20 05:58:57;;;;;;;10.60;6.93;;;-0.30;1.00;;;;;;8266180;28;20281;-67
2023/01/20 06:02:58;;;;;;;10.17;6.50;;;-0.30;1.00;;;;;;8265560;28;20222;-67
2023/01/20 06:06:59;;;;;;;11.27;7.17;;;-0.30;1.00;;;;;;8268172;28;20199;-66
2023/01/20 06:10:59;;;;;;;12.37;6.87;;;-0.30;20.00;;;;;;8265943;28;20203;-67
2023/01/20 06:15:00;;;;;;;14.43;9.80;;;-0.30;18.70;;;;;;8265047;28;20187;-66
2023/01/20 06:19:01;;;;;;;19.77;11.10;;;-0.30;57.10;;;;;;8267860;28;20187;-67
2023/01/20 06:23:02;;;;;;;17.90;10.43;;;-0.40;99.90;;;;;;8265629;28;20195;-67
2023/01/20 06:27:03;;;;;;;13.13;9.10;;;-0.40;99.90;;;;;;8266800;28;20197;-67
2023/01/20 06:31:09;;;;;;;14.87;8.53;;;-0.40;99.90;;;;;;8264226;28;20291;-67
2023/01/20 06:35:10;;;;;;;12.00;7.87;;;-0.40;99.90;;;;;;8266031;28;20664;-67
2023/01/20 06:39:11;;;;;;;11.80;7.57;;;-0.30;99.90;;;;;;8267918;28;20199;-67
2023/01/20 06:43:12;;;;;;;11.00;7.33;;;-0.30;99.90;;;;;;8272300;28;20187;-67
2023/01/20 06:47:12;;;;;;;11.33;7.30;;;-0.20;99.90;;;;;;8269533;28;20187;-66
2023/01/20 06:51:16;;;;;;;11.70;7.00;;;-0.10;99.90;;;;;;8267376;28;20281;-66
2023/01/20 06:55:17;;;;;;;12.67;8.90;;;-0.10;99.50;;;;;;8264474;28;20459;-67
2023/01/20 06:59:18;;;;;;;18.10;10.37;;;-0.10;36.50;;;;;;8268134;28;20261;-67
2023/01/20 07:03:19;;;;;;;18.00;12.03;;;0.00;32.00;;;;;;8267449;28;20222;-68
2023/01/20 07:07:19;;;;;;;69.20;23.97;;;0.00;3.40;;;;;;8262526;28;20198;-68
2023/01/20 07:11:20;;;;;;;18.73;12.13;;;0.10;1.00;;;;;;8269272;28;20669;-68
2023/01/20 07:15:21;;;;;;;35.33;18.23;;;0.10;1.00;;;;;;8266175;28;20199;-68
2023/01/20 07:19:22;;;;;;;32.70;19.43;;;0.00;14.10;;;;;;8272425;28;20180;-68
2023/01/20 07:23:23;;;;;;;30.47;16.03;;;-0.10;99.90;;;;;;8268065;28;20196;-68
2023/01/20 07:27:24;;;;;;;21.73;12.63;;;-0.20;99.90;;;;;;8264990;28;20188;-68
2023/01/20 07:31:27;;;;;;;21.00;12.13;;;-0.20;99.90;;;;;;8267769;28;20298;-68
2023/01/20 07:35:28;;;;;;;19.27;11.20;;;-0.20;99.90;;;;;;8268766;28;20455;-68
2023/01/20 07:39:29;;;;;;;18.37;11.37;;;-0.10;99.90;;;;;;8272689;28;20199;-68
2023/01/20 07:43:30;;;;;;;23.43;12.63;;;-0.10;99.90;;;;;;8261103;28;20188;-68
2023/01/20 07:47:31;;;;;;;32.97;17.37;;;0.00;64.70;;;;;;8266678;28;20286;-68
2023/01/20 07:51:31;;;;;;;25.67;13.93;;;0.00;58.60;;;;;;8264849;28;20211;-68
2023/01/20 07:55:33;;;;;;;19.23;12.07;;;0.10;27.80;;;;;;8261786;28;20176;-68
2023/01/20 07:59:33;;;;;;;19.13;10.83;;;0.30;1.00;;;;;;8267431;28;20191;-68
2023/01/20 08:03:34;;;;;;;19.00;12.07;;;0.50;15.30;;;;;;8267961;28;20242;-69
2023/01/20 08:07:35;;;;;;;15.60;10.07;;;0.70;1.00;;;;;;8264847;28;20365;-69
2023/01/20 08:11:36;;;;;;;16.63;10.43;;;0.80;1.00;;;;;;8266457;28;20632;-70
2023/01/20 08:15:37;;;;;;;16.87;9.67;;;0.90;1.00;;;;;;8261645;28;20203;-71
2023/01/20 08:19:38;;;;;;;14.97;10.10;;;0.90;1.00;;;;;;8261407;28;20184;-71
2023/01/20 08:23:38;;;;;;;18.30;10.07;;;1.00;1.00;;;;;;8267180;28;20261;-70
2023/01/20 08:27:39;;;;;;;14.67;8.93;;;1.00;99.90;;;;;;8265491;28;20196;-70
2023/01/20 08:31:41;;;;;;;14.07;9.87;;;1.00;99.90;;;;;;8265024;28;20238;-70
2023/01/20 08:35:42;;;;;;;18.63;10.50;;;1.00;99.90;;;;;;8274792;28;20203;-71
2023/01/20 08:39:42;;;;;;;21.37;11.60;;;1.00;99.90;;;;;;8265308;28;20199;-70
2023/01/20 08:43:43;;;;;;;18.00;11.70;;;1.00;99.90;;;;;;8274857;28;20188;-71
2023/01/20 08:47:44;;;;;;;22.93;13.50;;;0.90;99.90;;;;;;8268217;28;20191;-70
2023/01/20 08:51:45;;;;;;;18.57;11.83;;;0.90;99.90;;;;;;8271631;28;20210;-70
2023/01/20 08:55:57;;;;;;;19.37;12.50;;;1.00;99.90;;;;;;8268851;28;20265;-70
2023/01/20 08:59:58;;;;;;;17.70;10.80;;;1.10;99.90;;;;;;8269349;28;20207;-72
2023/01/20 09:03:59;;;;;;;22.97;12.70;;;1.00;99.90;;;;;;8269004;28;20191;-71
2023/01/20 09:08:00;;;;;;;18.90;11.03;;;0.90;1.00;;;;;;8268804;28;20445;-70
2023/01/20 09:12:02;;;;;;;17.07;11.20;;;1.00;1.00;;;;;;8275154;28;20215;-70
2023/01/20 09:16:03;;;;;;;17.90;11.67;;;1.00;1.00;;;;;;8268226;28;20274;-71
2023/01/20 09:20:04;;;;;;;20.73;12.47;;;1.10;1.00;;;;;;8281495;28;20190;-70
2023/01/20 09:24:06;;;;;;;16.97;10.80;;;1.10;1.00;;;;;;8267052;28;20193;-71
2023/01/20 09:28:07;;;;;;;22.20;13.23;;;1.20;1.00;;;;;;8267470;28;20202;-71
2023/01/20 09:32:09;;;;;;;24.40;14.17;;;1.30;1.00;;;;;;8269081;28;20247;-71
2023/01/20 09:36:10;;;;;;;23.63;14.23;;;1.40;1.00;;;;;;8266001;28;20203;-71
2023/01/20 09:45:07;;;;;;;26.50;15.47;;;1.20;1.00;;;;;;8266462;28;20222;-72
2023/01/20 09:54:32;;;;;;;14.50;10.33;;;1.10;1.00;;;;;;8267689;28;20281;-72
2023/01/20 09:58:45;;;;;;;19.23;11.27;;;1.00;1.00;;;;;;8246513;28;20192;-70
2023/01/20 10:02:52;;;;;;;19.13;12.47;;;0.90;55.70;;;;;;8265988;28;20202;-72
2023/01/20 10:07:06;;;;;;;19.20;12.20;;;0.80;99.90;;;;;;8273082;28;20187;-71
2023/01/20 10:11:21;;;;;;;28.23;14.73;;;0.80;99.90;;;;;;8269156;28;20219;-71
2023/01/20 10:15:28;;;;;;;24.73;14.67;;;0.80;99.90;;;;;;8264982;28;20188;-71
2023/01/20 10:19:41;;;;;;;23.17;14.00;;;0.70;99.90;;;;;;8269974;28;20194;-70
2023/01/20 10:23:56;;;;;;;22.57;14.17;;;0.70;99.90;;;;;;8274517;28;20186;-70
2023/01/20 10:28:11;;;;;;;27.93;14.67;;;0.60;4.00;;;;;;8271782;28;20178;-71
2023/01/20 10:32:31;;;;;;;26.77;16.20;;;0.70;99.90;;;;;;8263490;28;20284;-70
2023/01/20 10:36:33;;;;;;;24.83;14.70;;;0.70;99.90;;;;;;8261935;28;20318;-69
2023/01/20 10:41:06;;;;;;;28.73;15.90;;;0.80;1.00;;;;;;8268055;28;20490;-71
2023/01/20 10:45:19;;;;;;;23.43;14.27;;;0.80;1.00;;;;;;8259762;28;20208;-71
2023/01/20 10:49:41;;;;;;;30.43;14.87;;;0.80;1.00;;;;;;8268528;28;20183;-71
2023/01/20 10:54:24;;;;;;;31.20;14.97;;;0.70;99.90;;;;;;8268806;28;20206;-71
2023/01/20 10:58:35;;;;;;;27.07;14.70;;;0.80;1.00;;;;;;8264410;28;20191;-72
2023/01/20 11:02:36;;;;;;;24.67;15.07;;;1.00;99.90;;;;;;8263803;28;20286;-71
2023/01/20 11:06:38;;;;;;;25.70;13.40;;;1.00;73.10;;;;;;8265149;28;20378;-72
2023/01/20 11:10:40;;;;;;;26.80;13.83;;;1.10;1.00;;;;;;8268542;28;20184;-72
2023/01/20 11:14:42;;;;;;;32.37;15.97;;;1.20;1.00;;;;;;8266970;28;20496;-73
2023/01/20 11:18:58;;;;;;;28.37;15.80;;;1.20;99.90;;;;;;8277220;28;20193;-70
2023/01/20 11:22:59;;;;;;;31.90;17.47;;;1.20;99.90;;;;;;8262850;28;20194;-71
2023/01/20 11:27:13;;;;;;;27.87;14.17;;;1.20;99.90;;;;;;8271876;28;20176;-72
2023/01/20 11:31:15;;;;;;;24.70;14.33;;;1.10;99.90;;;;;;8262311;28;20211;-69
2023/01/20 11:35:24;;;;;;;28.33;15.67;;;1.10;99.90;;;;;;8267270;28;20270;-69
2023/01/20 11:39:29;;;;;;;25.83;15.83;;;1.10;99.90;;;;;;8268384;28;20223;-69
2023/01/20 11:43:33;;;;;;;27.77;16.43;;;1.00;99.90;;;;;;8269083;28;20187;-71
2023/01/20 11:47:36;;;;;;;24.50;14.73;;;1.10;1.00;;;;;;8261730;28;20191;-71
2023/01/20 11:51:48;;;;;;;25.20;14.30;;;1.20;99.90;;;;;;8259703;28;20269;-70
2023/01/20 11:56:04;;;;;;;25.07;14.83;;;1.20;99.90;;;;;;8265627;28;20210;-71
2023/01/20 12:00:25;;;;;;;26.70;14.17;;;1.30;99.90;;;;;;8264827;28;20206;-71
2023/01/20 12:04:57;;;;;;;22.90;13.00;;;1.10;99.90;;;;;;8260042;28;20230;-69
2023/01/20 12:09:16;;;;;;;27.77;14.57;;;1.00;99.90;;;;;;8267739;28;20250;-71
2023/01/20 12:18:16;;;;;;;26.07;12.83;;;1.10;99.90;;;;;;8257718;28;20199;-71
2023/01/20 12:22:23;;;;;;;28.03;14.47;;;0.90;1.00;;;;;;8268401;28;20188;-69
2023/01/20 12:26:26;;;;;;;24.40;13.83;;;0.80;1.00;;;;;;8266182;28;20191;-71
2023/01/20 12:30:37;;;;;;;28.43;15.07;;;0.70;99.90;;;;;;8273772;28;20191;-71
2023/01/20 12:34:37;;;;;;;22.60;12.87;;;0.70;99.90;;;;;;8262179;28;20296;-69
2023/01/20 12:38:58;;;;;;;28.00;14.00;;;0.70;1.00;;;;;;8262340;28;20203;-72
2023/01/20 12:43:29;;;;;;;28.33;13.77;;;0.70;1.00;;;;;;8261518;28;20183;-72
2023/01/20 12:48:07;;;;;;;30.40;15.07;;;0.70;1.00;;;;;;8262740;28;20508;-68
2023/01/20 12:52:50;;;;;;;27.60;13.97;;;0.60;99.90;;;;;;8270095;28;20211;-70
2023/01/20 12:57:09;;;;;;;28.83;14.60;;;0.60;1.00;;;;;;8253123;28;20189;-70
2023/01/20 13:01:15;;;;;;;27.83;15.43;;;0.60;99.90;;;;;;8265314;28;20183;-72
2023/01/20 13:05:37;;;;;;;35.37;15.10;;;0.60;6.10;;;;;;8261642;28;20278;-71
2023/01/20 13:10:06;;;;;;;36.00;16.73;;;0.50;99.90;;;;;;8265575;28;20333;-70
2023/01/20 13:14:20;;;;;;;33.97;16.73;;;0.60;99.90;;;;;;8262658;28;20226;-71
2023/01/20 13:18:30;;;;;;;33.70;16.70;;;0.50;99.90;;;;;;8265197;28;20202;-70
2023/01/20 13:22:31;;;;;;;34.70;18.63;;;0.50;99.90;;;;;;8266624;28;20224;-72
2023/01/20 13:26:34;;;;;;;36.33;17.53;;;0.60;99.90;;;;;;8276229;28;20179;-70
2023/01/20 13:30:49;;;;;;;38.33;19.17;;;0.70;99.90;;;;;;8281165;28;20214;-71
2023/01/20 13:34:50;;;;;;;36.23;17.53;;;0.60;99.90;;;;;;8274792;28;20286;-69
2023/01/20 13:39:40;;;;;;;37.60;18.53;;;0.50;99.90;;;;;;8267776;28;20259;-70
2023/01/20 13:43:43;;;;;;;39.73;19.80;;;0.50;99.90;;;;;;8267599;28;20225;-71
2023/01/20 13:48:02;;;;;;;38.27;17.87;;;0.40;99.90;;;;;;8274007;28;20262;-69
2023/01/20 13:52:03;;;;;;;40.83;20.37;;;0.40;99.90;;;;;;8269606;28;20282;-71
2023/01/20 13:56:22;;;;;;;40.27;19.27;;;0.40;99.90;;;;;;8266494;28;20310;-70
2023/01/20 14:00:23;;;;;;;40.27;18.80;;;0.40;99.90;;;;;;8269361;28;20180;-70
2023/01/20 14:04:24;;;;;;;40.50;19.00;;;0.40;99.90;;;;;;8279764;28;20192;-70
2023/01/20 14:08:27;;;;;;;46.20;19.73;;;0.40;99.90;;;;;;8267171;28;20198;-70
2023/01/20 14:12:28;;;;;;;39.63;17.73;;;0.40;99.90;;;;;;8276116;28;20222;-71
2023/01/20 14:16:35;;;;;;;39.53;17.67;;;0.40;99.90;;;;;;8265635;28;20255;-70
2023/01/20 14:20:36;;;;;;;34.10;17.33;;;0.40;99.90;;;;;;8272253;28;20197;-68
2023/01/20 14:24:45;;;;;;;34.40;16.83;;;0.40;99.90;;;;;;8270298;28;20188;-71
2023/01/20 14:28:58;;;;;;;28.63;14.40;;;0.40;99.90;;;;;;8271349;28;20195;-71
2023/01/20 14:32:59;;;;;;;30.27;13.87;;;0.40;99.90;;;;;;8266320;28;20254;-70
2023/01/20 14:37:20;;;;;;;22.27;11.70;;;0.40;99.90;;;;;;8269752;28;20207;-71
2023/01/20 14:41:45;;;;;;;29.30;14.50;;;0.40;99.90;;;;;;8272624;28;20198;-70
2023/01/20 14:45:48;;;;;;;38.70;16.70;;;0.40;99.90;;;;;;8268841;28;20183;-70
2023/01/20 14:49:52;;;;;;;32.40;13.97;;;0.40;99.90;;;;;;8268125;28;20575;-71
2023/01/20 14:54:34;;;;;;;33.53;14.00;;;0.30;99.90;;;;;;8267003;28;20207;-71
2023/01/20 14:58:35;;;;;;;32.53;13.87;;;0.30;99.90;;;;;;8269036;28;20186;-70
2023/01/20 15:02:37;;;;;;;28.10;13.40;;;0.30;99.90;;;;;;8267376;28;20202;-69
2023/01/20 15:06:38;;;;;;;26.50;13.23;;;0.30;99.90;;;;;;8265523;28;20196;-68
2023/01/20 15:10:39;;;;;;;31.20;14.30;;;0.30;99.90;;;;;;8269975;28;20624;-70
2023/01/20 15:14:40;;;;;;;61.83;26.47;;;0.30;99.90;;;;;;8268225;28;20217;-70
2023/01/20 15:18:40;;;;;;;24.70;12.03;;;0.20;99.90;;;;;;8265262;28;20184;-69
2023/01/20 15:22:42;;;;;;;24.57;12.33;;;0.20;99.90;;;;;;8273946;28;20187;-72
2023/01/20 15:26:44;;;;;;;26.97;13.03;;;0.20;99.90;;;;;;8265840;28;20211;-69
2023/01/20 15:30:45;;;;;;;23.33;12.13;;;0.20;99.90;;;;;;8268200;28;20278;-69
2023/01/20 15:34:46;;;;;;;32.67;15.40;;;0.20;99.90;;;;;;8266160;28;20229;-70
2023/01/20 15:38:47;;;;;;;45.03;18.47;;;0.20;99.90;;;;;;8272775;28;20199;-69
2023/01/20 15:42:49;;;;;;;38.87;18.80;;;0.20;99.90;;;;;;8272250;28;20179;-71
2023/01/20 15:46:51;;;;;;;34.90;16.53;;;0.20;99.90;;;;;;8268161;28;20198;-71
2023/01/20 15:50:52;;;;;;;29.80;15.67;;;0.20;99.90;;;;;;8266621;28;20183;-68
2023/01/20 15:54:53;;;;;;;38.90;17.90;;;0.20;99.90;;;;;;8265626;28;20229;-64
2023/01/20 15:58:54;;;;;;;24.00;13.50;;;0.20;99.90;;;;;;8264513;28;20179;-64
2023/01/20 16:02:55;;;;;;;28.87;13.50;;;0.20;99.90;;;;;;8261746;28;20193;-65
2023/01/20 16:06:56;;;;;;;23.93;11.63;;;0.10;99.90;;;;;;8262181;28;20187;-65
2023/01/20 16:10:57;;;;;;;27.90;13.30;;;0.20;99.90;;;;;;8263408;28;20277;-68
2023/01/20 16:14:58;;;;;;;27.97;14.07;;;0.10;99.90;;;;;;8267675;28;20237;-68
2023/01/20 16:18:59;;;;;;;25.87;12.33;;;0.10;99.90;;;;;;8268201;28;20195;-69
2023/01/20 16:23:00;;;;;;;21.53;12.23;;;0.10;99.90;;;;;;8262666;28;20188;-68
2023/01/20 16:27:03;;;;;;;26.70;12.80;;;0.10;99.90;;;;;;8262695;28;20190;-69
2023/01/20 16:31:04;;;;;;;26.23;12.50;;;0.10;99.90;;;;;;8259478;28;20188;-69
2023/01/20 16:35:05;;;;;;;20.00;11.27;;;0.10;99.90;;;;;;8264510;28;20215;-69
2023/01/20 16:39:06;;;;;;;27.53;13.93;;;0.10;99.90;;;;;;8267282;28;20204;-69
2023/01/20 16:43:08;;;;;;;26.60;14.63;;;0.10;99.90;;;;;;8263590;28;20762;-70
2023/01/20 16:47:09;;;;;;;40.40;19.20;;;0.10;99.90;;;;;;8264757;28;20235;-70
2023/01/20 16:51:14;;;;;;;208.00;72.77;;;0.10;99.90;;;;;;8262560;28;20413;-70
2023/01/20 16:55:15;;;;;;;47.87;24.67;;;0.10;99.90;;;;;;8272835;28;20179;-70
2023/01/20 16:59:16;;;;;;;32.83;17.23;;;0.10;99.90;;;;;;8271171;28;20211;-70
2023/01/20 17:03:24;;;;;;;38.10;18.27;;;0.10;99.90;;;;;;8269161;28;20190;-69
2023/01/20 17:07:26;;;;;;;40.17;19.40;;;0.00;99.90;;;;;;8277190;28;20195;-69
2023/01/20 17:11:32;;;;;;;39.90;20.27;;;0.00;99.90;;;;;;8272857;28;20271;-66
2023/01/20 17:15:33;;;;;;;52.47;24.63;;;0.00;99.90;;;;;;8270040;28;20179;-65
2023/01/20 17:19:34;;;;;;;60.20;30.27;;;0.00;99.90;;;;;;8272129;28;20193;-64
2023/01/20 17:23:36;;;;;;;64.83;31.10;;;-0.10;99.90;;;;;;8269950;28;20223;-64
2023/01/20 17:27:37;;;;;;;29.77;15.97;;;0.00;99.90;;;;;;8268229;28;20192;-64
2023/01/20 17:31:39;;;;;;;27.93;14.27;;;-0.10;99.90;;;;;;8264717;28;20210;-64
2023/01/20 17:35:40;;;;;;;26.37;14.57;;;-0.20;99.90;;;;;;8268538;28;20202;-64
2023/01/20 17:39:41;;;;;;;34.03;16.63;;;-0.20;99.90;;;;;;8267087;28;20198;-65
2023/01/20 17:43:45;;;;;;;33.70;16.83;;;-0.20;99.90;;;;;;8272052;28;20261;-64
2023/01/20 17:47:50;;;;;;;43.97;21.77;;;-0.20;99.90;;;;;;8267858;28;20190;-65
2023/01/20 17:51:51;;;;;;;28.90;16.33;;;-0.20;99.90;;;;;;8268447;28;20207;-66
2023/01/20 17:55:52;;;;;;;28.53;15.40;;;-0.10;99.90;;;;;;8264742;28;20960;-65
2023/01/20 17:59:53;;;;;;;35.33;17.10;;;-0.20;99.90;;;;;;8272551;28;20187;-66
2023/01/20 18:03:55;;;;;;;34.77;16.33;;;-0.20;99.90;;;;;;8263953;28;20222;-66
2023/01/20 18:07:56;;;;;;;34.83;16.57;;;-0.30;99.90;;;;;;8263519;28;20198;-65
2023/01/20 18:11:57;;;;;;;38.73;19.20;;;-0.30;99.90;;;;;;8265910;28;20198;-66
2023/01/20 18:16:06;;;;;;;31.07;15.57;;;-0.30;99.90;;;;;;8267415;28;20186;-66
2023/01/20 18:20:08;;;;;;;36.23;16.97;;;-0.30;99.90;;;;;;8267714;28;20197;-65
2023/01/20 18:24:10;;;;;;;35.63;16.10;;;-0.30;99.90;;;;;;8265220;28;20393;-65
2023/01/20 18:28:11;;;;;;;31.30;14.13;;;-0.40;99.90;;;;;;8264518;28;20205;-69
2023/01/20 18:32:12;;;;;;;27.77;14.63;;;-0.40;99.90;;;;;;8264645;28;20237;-70
2023/01/20 18:36:17;;;;;;;31.23;14.50;;;-0.30;99.90;;;;;;8263530;28;20206;-66
2023/01/20 18:40:18;;;;;;;28.00;14.20;;;-0.30;99.90;;;;;;8267800;28;20202;-65
2023/01/20 18:44:20;;;;;;;36.80;18.40;;;-0.40;99.90;;;;;;8266519;28;20187;-65
2023/01/20 18:48:24;;;;;;;54.33;27.03;;;-0.40;99.90;;;;;;8263893;28;20201;-66
2023/01/20 18:52:24;;;;;;;31.47;15.13;;;-0.40;99.90;;;;;;8263450;28;20210;-66
2023/01/20 18:56:28;;;;;;;23.57;13.47;;;-0.40;99.90;;;;;;8269300;28;20253;-66
2023/01/20 19:00:29;;;;;;;27.43;14.17;;;-0.40;99.90;;;;;;8268883;28;20305;-66
2023/01/20 19:04:32;;;;;;;21.17;13.20;;;-0.50;99.90;;;;;;8263975;28;20192;-66
2023/01/20 19:08:33;;;;;;;24.97;13.03;;;-0.50;99.90;;;;;;8272008;28;20579;-65
2023/01/20 19:12:34;;;;;;;25.03;13.23;;;-0.50;99.90;;;;;;8272621;28;20294;-66
2023/01/20 19:16:43;;;;;;;27.13;14.87;;;-0.50;99.90;;;;;;8270770;28;20190;-66
2023/01/20 19:20:44;;;;;;;26.23;13.33;;;-0.50;99.90;;;;;;8266814;28;20183;-65
2023/01/20 19:24:45;;;;;;;30.60;13.23;;;-0.60;99.90;;;;;;8266438;28;20198;-65
2023/01/20 19:28:48;;;;;;;32.50;15.43;;;-0.60;99.90;;;;;;8265002;28;20186;-65
2023/01/20 19:32:49;;;;;;;26.27;13.93;;;-0.60;99.90;;;;;;8269721;28;20237;-65
2023/01/20 19:36:49;;;;;;;31.63;15.33;;;-0.60;99.90;;;;;;8266033;28;20203;-66
2023/01/20 19:40:50;;;;;;;28.83;16.03;;;-0.60;99.90;;;;;;8260266;28;20203;-66
2023/01/20 19:44:51;;;;;;;26.00;13.73;;;-0.60;99.90;;;;;;8266268;28;20218;-66
2023/01/20 19:48:54;;;;;;;32.47;16.50;;;-0.60;99.90;;;;;;8262866;28;20222;-65
2023/01/20 19:52:54;;;;;;;32.20;16.83;;;-0.60;99.90;;;;;;8261742;28;20214;-64
2023/01/20 19:56:55;;;;;;;33.40;17.60;;;-0.70;99.90;;;;;;8266002;28;20223;-65
2023/01/20 20:01:18;;;;;;;31.60;16.87;;;-0.60;99.90;;;;;;8271297;28;20216;-65
2023/01/20 20:05:19;;;;;;;31.77;15.90;;;-0.60;99.90;;;;;;8265933;28;20486;-64
2023/01/20 20:09:22;;;;;;;38.37;19.00;;;-0.60;99.90;;;;;;8267698;28;20194;-65
2023/01/20 20:13:23;;;;;;;45.83;24.20;;;-0.50;99.90;;;;;;8267042;28;20226;-64
2023/01/20 20:17:26;;;;;;;47.03;22.80;;;-0.50;99.90;;;;;;8265722;28;20205;-64
2023/01/20 20:21:27;;;;;;;30.03;16.03;;;-0.50;99.90;;;;;;8262911;28;20203;-64
2023/01/20 20:25:28;;;;;;;30.57;15.37;;;-0.60;99.90;;;;;;8268591;28;20179;-64
2023/01/20 20:29:29;;;;;;;34.17;15.47;;;-0.60;99.90;;;;;;8267753;28;20186;-65
2023/01/20 20:33:30;;;;;;;33.17;15.47;;;-0.60;99.90;;;;;;8270197;28;20208;-65
2023/01/20 20:37:31;;;;;;;30.33;15.00;;;-0.70;99.90;;;;;;8273007;28;20197;-64
2023/01/20 20:41:34;;;;;;;33.53;15.60;;;-0.70;99.90;;;;;;8270273;28;20243;-65
2023/01/20 20:45:34;;;;;;;35.27;16.40;;;-0.70;99.90;;;;;;8276816;28;20185;-64
2023/01/20 20:49:35;;;;;;;31.63;13.50;;;-0.80;99.90;;;;;;8268401;28;20200;-65
2023/01/20 20:53:37;;;;;;;40.03;19.43;;;-0.80;99.90;;;;;;8270766;28;20210;-64
2023/01/20 20:57:37;;;;;;;43.93;18.97;;;-0.80;99.90;;;;;;8269105;28;20190;-64
2023/01/20 21:01:38;;;;;;;42.90;20.13;;;-0.80;99.90;;;;;;8271965;28;20193;-65
2023/01/20 21:05:42;;;;;;;40.90;19.20;;;-0.70;99.90;;;;;;8268307;28;20191;-65
2023/01/20 21:09:44;;;;;;;34.80;16.83;;;-0.70;99.90;;;;;;8270641;28;20201;-64